Time;durP1;ratioP1;P1;durP2;ratioP2;P2;SDS_P1;SDS_P2;PMS_P1;PMS_P2;Temp;Humidity;BMP_temperature;BMP_pressure;BME280_temperature;BME280_humidity;BME280_pressure;Samples;Min_cycle;Max_cycle;Signal;HPM_P1;HPM_P2
2021/12/20 00:01:08;;;;;;;31.70;7.10;;;6.30;99.90;;;;;;5027788;28;20118;-73
2021/12/20 00:03:35;;;;;;;32.33;6.57;;;6.20;99.90;;;;;;5043371;28;20114;-73
2021/12/20 00:06:01;;;;;;;34.17;6.70;;;6.20;99.90;;;;;;5043974;28;20116;-73
2021/12/20 00:08:28;;;;;;;30.50;5.97;;;6.20;99.90;;;;;;5043297;28;20048;-73
2021/12/20 00:10:55;;;;;;;30.40;6.47;;;6.20;99.90;;;;;;5025634;28;20144;-73
2021/12/20 00:13:22;;;;;;;25.07;5.47;;;6.20;99.90;;;;;;5044212;28;20029;-73
2021/12/20 00:15:49;;;;;;;27.70;5.63;;;6.20;99.90;;;;;;5024714;28;20411;-73
2021/12/20 00:18:14;;;;;;;36.97;6.13;;;6.20;99.90;;;;;;5044351;28;20471;-73
2021/12/20 00:20:40;;;;;;;31.83;5.97;;;6.20;99.90;;;;;;5024734;28;20494;-73
2021/12/20 00:23:06;;;;;;;32.80;5.47;;;6.20;99.90;;;;;;5028948;28;20045;-73
2021/12/20 00:25:33;;;;;;;23.57;4.93;;;6.10;99.90;;;;;;5011278;28;20094;-73
2021/12/20 00:28:01;;;;;;;32.87;5.57;;;6.20;99.90;;;;;;5011656;28;20045;-73
2021/12/20 00:30:27;;;;;;;36.23;6.70;;;6.20;99.90;;;;;;5011261;28;20083;-73
2021/12/20 00:32:53;;;;;;;27.90;5.37;;;6.20;99.90;;;;;;5024995;28;20075;-73
2021/12/20 00:35:24;;;;;;;28.50;6.00;;;6.20;99.90;;;;;;5044612;28;20080;-73
2021/12/20 00:40:34;;;;;;;29.57;5.93;;;6.10;99.90;;;;;;5043029;28;19921;-73
2021/12/20 00:43:01;;;;;;;32.05;6.07;;;6.10;99.90;;;;;;5044576;28;20036;-73
2021/12/20 00:45:30;;;;;;;30.75;5.38;;;6.10;99.90;;;;;;5044645;28;20410;-73
2021/12/20 00:47:56;;;;;;;29.63;6.70;;;6.10;99.90;;;;;;5044537;28;20049;-73
2021/12/20 00:50:24;;;;;;;26.50;5.40;;;6.10;99.90;;;;;;5042552;28;20048;-73
2021/12/20 00:52:50;;;;;;;27.30;5.23;;;6.10;99.90;;;;;;5028046;28;20139;-73
2021/12/20 00:55:18;;;;;;;33.43;5.43;;;6.10;99.90;;;;;;5027442;28;20097;-73
2021/12/20 00:57:48;;;;;;;31.33;5.77;;;6.10;99.90;;;;;;5011669;28;20044;-73
2021/12/20 01:00:18;;;;;;;26.48;5.35;;;6.20;99.90;;;;;;5009239;28;20048;-73
2021/12/20 01:02:45;;;;;;;38.03;5.90;;;6.10;99.90;;;;;;5043510;28;20112;-73
2021/12/20 01:05:13;;;;;;;34.27;5.33;;;6.10;99.90;;;;;;5039290;28;20491;-69
2021/12/20 01:07:39;;;;;;;22.87;4.80;;;6.10;99.90;;;;;;5044341;28;20526;-69
2021/12/20 01:10:08;;;;;;;30.80;5.03;;;6.10;99.90;;;;;;5044012;28;20079;-69
2021/12/20 01:12:45;;;;;;;25.60;4.60;;;6.10;99.90;;;;;;5044004;28;20048;-69
2021/12/20 01:15:18;;;;;;;36.80;6.43;;;6.10;99.90;;;;;;5027580;28;20053;-69
2021/12/20 01:17:44;;;;;;;27.13;5.27;;;6.10;99.90;;;;;;5042161;28;20565;-69
2021/12/20 01:20:11;;;;;;;31.40;6.57;;;6.10;99.90;;;;;;5040262;28;20128;-69
2021/12/20 01:22:37;;;;;;;26.00;5.57;;;6.10;99.90;;;;;;5027726;28;20148;-70
2021/12/20 01:25:03;;;;;;;28.03;4.97;;;6.10;99.90;;;;;;5028357;28;20230;-69
2021/12/20 01:27:29;;;;;;;27.77;5.80;;;6.10;99.90;;;;;;5044209;28;20049;-69
2021/12/20 01:29:55;;;;;;;30.00;5.90;;;6.00;99.90;;;;;;5028516;28;20063;-70
2021/12/20 01:32:22;;;;;;;25.83;5.15;;;6.00;99.90;;;;;;5043482;28;20091;-69
2021/12/20 01:34:48;;;;;;;26.20;5.07;;;6.10;99.90;;;;;;5012531;28;20136;-73
2021/12/20 01:37:15;;;;;;;24.07;4.97;;;6.00;99.90;;;;;;5044527;28;20170;-73
2021/12/20 01:39:41;;;;;;;25.37;4.67;;;6.00;99.90;;;;;;5043124;28;20445;-73
2021/12/20 01:42:08;;;;;;;27.63;4.83;;;6.00;99.90;;;;;;5028630;28;20049;-73
2021/12/20 01:44:35;;;;;;;22.80;5.00;;;6.00;99.90;;;;;;5044813;28;20052;-73
2021/12/20 01:47:03;;;;;;;27.37;4.77;;;5.90;99.90;;;;;;5043931;28;20057;-73
2021/12/20 01:49:32;;;;;;;24.73;4.80;;;5.90;99.90;;;;;;5042518;28;20126;-73
2021/12/20 01:52:04;;;;;;;30.43;5.80;;;5.90;99.90;;;;;;5043706;28;20106;-73
2021/12/20 01:54:31;;;;;;;26.47;5.27;;;5.90;99.90;;;;;;5043360;28;20469;-73
2021/12/20 01:56:57;;;;;;;24.10;5.57;;;5.90;99.90;;;;;;5044159;28;20079;-73
2021/12/20 01:59:23;;;;;;;21.83;4.60;;;5.80;99.90;;;;;;5027052;28;20033;-73
2021/12/20 02:01:50;;;;;;;22.83;4.77;;;5.80;99.90;;;;;;5010966;28;20052;-73
2021/12/20 02:04:16;;;;;;;26.83;4.50;;;5.80;99.90;;;;;;5027260;28;20037;-73
2021/12/20 02:06:47;;;;;;;26.43;4.57;;;5.80;99.90;;;;;;5044016;28;20047;-73
2021/12/20 02:09:15;;;;;;;25.60;4.85;;;5.90;99.90;;;;;;5044146;28;20049;-73
2021/12/20 02:11:43;;;;;;;24.93;4.83;;;5.90;99.90;;;;;;5027691;28;20053;-73
2021/12/20 02:14:10;;;;;;;26.90;4.40;;;6.00;99.90;;;;;;5027138;28;20671;-69
2021/12/20 02:16:38;;;;;;;22.57;4.20;;;5.90;99.90;;;;;;5026691;28;20399;-69
2021/12/20 02:19:06;;;;;;;24.60;4.27;;;5.90;99.90;;;;;;5027020;28;20029;-69
2021/12/20 02:21:33;;;;;;;25.77;4.40;;;5.90;99.90;;;;;;5025502;28;20130;-73
2021/12/20 02:24:02;;;;;;;24.90;4.50;;;5.90;99.90;;;;;;5027817;28;20052;-73
2021/12/20 02:26:28;;;;;;;18.33;3.70;;;5.90;99.90;;;;;;5010678;28;20563;-73
2021/12/20 02:28:57;;;;;;;20.83;3.93;;;5.90;99.90;;;;;;5026799;28;20495;-73
2021/12/20 02:39:20;;;;;;;25.57;5.00;;;6.00;99.90;;;;;;5043917;28;20049;-73
2021/12/20 02:41:46;;;;;;;19.43;3.80;;;5.90;99.90;;;;;;5046992;28;20555;-73
2021/12/20 02:44:18;;;;;;;24.17;3.77;;;5.90;99.90;;;;;;5046641;28;20094;-73
2021/12/20 02:47:02;;;;;;;19.70;3.33;;;5.90;99.90;;;;;;5031438;28;20095;-73
2021/12/20 02:49:32;;;;;;;19.10;4.30;;;5.90;99.90;;;;;;5031310;28;20052;-69
2021/12/20 02:52:07;;;;;;;19.90;3.25;;;5.90;99.90;;;;;;5045798;28;20502;-69
2021/12/20 02:54:33;;;;;;;17.23;4.10;;;5.90;99.90;;;;;;5043783;28;20131;-69
2021/12/20 02:57:00;;;;;;;21.73;3.20;;;5.90;99.90;;;;;;5029856;28;20037;-69
2021/12/20 02:59:26;;;;;;;15.73;3.37;;;5.90;99.90;;;;;;5030052;28;20044;-69
2021/12/20 03:02:06;;;;;;;17.93;3.77;;;5.90;99.90;;;;;;5043349;28;20083;-69
2021/12/20 03:04:32;;;;;;;18.93;3.53;;;5.90;99.90;;;;;;5047752;28;20048;-69
2021/12/20 03:07:08;;;;;;;14.57;2.87;;;5.80;99.90;;;;;;5043830;28;20055;-69
2021/12/20 03:09:38;;;;;;;12.43;3.10;;;5.80;99.90;;;;;;5044236;28;20122;-69
2021/12/20 03:12:07;;;;;;;18.83;3.67;;;5.80;99.90;;;;;;5022260;28;20056;-70
2021/12/20 03:14:40;;;;;;;16.90;3.20;;;5.80;99.90;;;;;;5037621;28;20049;-71
2021/12/20 03:17:07;;;;;;;19.53;3.27;;;5.80;99.90;;;;;;5038344;28;20064;-72
2021/12/20 03:19:33;;;;;;;14.07;3.37;;;5.70;99.90;;;;;;5026647;28;20387;-72
2021/12/20 03:22:00;;;;;;;14.83;2.97;;;5.70;99.90;;;;;;5009914;28;20095;-72
2021/12/20 03:24:26;;;;;;;21.53;3.37;;;5.70;99.90;;;;;;5009121;28;20037;-72
2021/12/20 03:26:52;;;;;;;17.97;2.90;;;5.70;99.90;;;;;;5042359;28;20041;-72
2021/12/20 03:29:18;;;;;;;18.37;3.13;;;5.70;99.90;;;;;;5046609;28;20049;-75
2021/12/20 03:31:44;;;;;;;15.37;2.77;;;5.60;99.90;;;;;;5012805;28;20086;-73
2021/12/20 03:34:11;;;;;;;19.00;2.83;;;5.60;99.90;;;;;;5014141;28;20060;-73
2021/12/20 03:36:37;;;;;;;15.77;3.20;;;5.50;99.90;;;;;;5030440;28;20500;-73
2021/12/20 03:39:05;;;;;;;10.93;2.90;;;5.60;99.90;;;;;;5040520;28;20248;-73
2021/12/20 03:41:31;;;;;;;12.73;2.60;;;5.50;99.90;;;;;;5041631;28;20037;-73
2021/12/20 03:43:57;;;;;;;16.07;2.83;;;5.50;99.90;;;;;;5027649;28;20407;-73
2021/12/20 03:46:23;;;;;;;13.33;3.23;;;5.50;99.90;;;;;;5027548;28;20332;-73
2021/12/20 03:48:49;;;;;;;13.73;2.53;;;5.40;99.90;;;;;;5044388;28;20052;-69
2021/12/20 03:51:15;;;;;;;19.00;3.03;;;5.50;99.90;;;;;;5026362;28;20040;-69
2021/12/20 03:53:41;;;;;;;13.33;2.80;;;5.30;99.90;;;;;;5044251;28;20055;-73
2021/12/20 03:56:08;;;;;;;13.80;2.67;;;5.40;99.90;;;;;;5027436;28;20041;-68
2021/12/20 03:58:35;;;;;;;15.03;3.27;;;5.40;99.90;;;;;;5027142;28;20044;-68
2021/12/20 04:01:04;;;;;;;17.03;2.80;;;5.30;99.90;;;;;;5040642;28;20464;-68
2021/12/20 04:03:31;;;;;;;13.35;3.45;;;5.30;99.90;;;;;;5043633;28;20040;-68
2021/12/20 04:05:57;;;;;;;10.83;3.27;;;5.20;99.90;;;;;;5028255;28;20128;-71
2021/12/20 04:08:23;;;;;;;13.93;3.13;;;5.20;99.90;;;;;;5043752;28;20131;-68
2021/12/20 04:10:49;;;;;;;9.87;2.40;;;5.10;99.90;;;;;;5043988;28;20049;-68
2021/12/20 04:13:15;;;;;;;12.90;2.40;;;5.10;99.90;;;;;;5027653;28;20033;-68
2021/12/20 04:15:41;;;;;;;12.20;2.80;;;5.10;99.90;;;;;;5043174;28;20041;-68
2021/12/20 04:18:07;;;;;;;11.13;2.17;;;5.00;99.90;;;;;;5043836;28;20053;-68
2021/12/20 04:20:33;;;;;;;16.53;2.90;;;4.90;99.90;;;;;;5007525;28;20049;-69
2021/12/20 04:22:59;;;;;;;11.30;2.30;;;4.80;99.90;;;;;;5027509;28;20126;-70
2021/12/20 04:25:25;;;;;;;13.17;2.70;;;4.80;99.90;;;;;;5024854;28;20041;-69
2021/12/20 04:27:51;;;;;;;11.47;2.30;;;4.70;99.90;;;;;;5027379;28;20478;-69
2021/12/20 04:30:17;;;;;;;12.70;2.43;;;4.60;99.90;;;;;;5026307;28;20556;-69
2021/12/20 04:32:45;;;;;;;14.43;2.67;;;4.60;99.90;;;;;;5026405;28;20041;-69
2021/12/20 04:35:13;;;;;;;8.57;2.13;;;4.50;99.90;;;;;;5043429;28;20037;-69
2021/12/20 04:37:42;;;;;;;17.37;2.57;;;4.50;99.90;;;;;;5043476;28;20049;-69
2021/12/20 04:40:12;;;;;;;15.77;3.30;;;4.40;99.90;;;;;;5026079;28;20048;-69
2021/12/20 04:42:38;;;;;;;24.95;4.10;;;4.40;99.90;;;;;;5026944;28;20040;-69
2021/12/20 04:45:04;;;;;;;15.27;2.70;;;4.30;99.90;;;;;;5027579;28;20045;-70
2021/12/20 04:47:30;;;;;;;13.70;2.60;;;4.30;99.90;;;;;;5041666;28;20079;-69
2021/12/20 04:49:56;;;;;;;12.17;2.60;;;4.30;99.90;;;;;;5026463;28;20090;-69
2021/12/20 04:52:23;;;;;;;16.27;3.17;;;4.20;99.90;;;;;;5026413;28;20040;-69
2021/12/20 04:54:49;;;;;;;12.97;2.70;;;4.20;99.90;;;;;;5027460;28;20037;-69
2021/12/20 04:57:15;;;;;;;10.77;2.00;;;4.20;99.90;;;;;;5026807;28;20408;-69
2021/12/20 04:59:41;;;;;;;18.93;3.10;;;4.10;99.90;;;;;;5043263;28;20045;-69
2021/12/20 05:02:07;;;;;;;13.60;2.67;;;4.10;99.90;;;;;;5038333;28;20049;-69
2021/12/20 05:04:33;;;;;;;16.13;3.13;;;4.00;99.90;;;;;;5009391;28;20871;-69
2021/12/20 05:06:59;;;;;;;17.50;3.60;;;4.00;99.90;;;;;;5026142;28;20052;-69
2021/12/20 05:09:28;;;;;;;13.30;2.90;;;4.00;99.90;;;;;;5009237;28;20041;-69
2021/12/20 05:12:09;;;;;;;14.13;3.17;;;3.90;99.90;;;;;;5010345;28;20124;-70
2021/12/20 05:14:35;;;;;;;13.53;2.57;;;3.90;99.90;;;;;;5025449;28;20412;-69
2021/12/20 05:17:01;;;;;;;14.93;2.53;;;3.80;99.90;;;;;;5016038;28;20057;-69
2021/12/20 05:19:27;;;;;;;13.73;2.80;;;3.80;99.90;;;;;;5029443;28;20044;-68
2021/12/20 05:21:53;;;;;;;12.50;2.37;;;3.80;99.90;;;;;;5026535;28;20103;-69
2021/12/20 05:24:19;;;;;;;14.20;3.00;;;3.70;99.90;;;;;;5044347;28;20048;-69
2021/12/20 05:26:44;;;;;;;9.33;2.07;;;3.60;99.90;;;;;;5028301;28;20491;-69
2021/12/20 05:29:10;;;;;;;11.00;2.30;;;3.60;99.90;;;;;;5027911;28;20123;-69
2021/12/20 05:31:36;;;;;;;10.43;2.20;;;3.50;99.90;;;;;;5026396;28;20059;-69
2021/12/20 05:34:02;;;;;;;10.97;1.83;;;3.50;99.90;;;;;;5044410;28;20119;-69
2021/12/20 05:36:28;;;;;;;12.83;2.50;;;3.40;99.90;;;;;;5044197;28;20041;-69
2021/12/20 05:38:57;;;;;;;14.70;2.63;;;3.30;99.90;;;;;;5026864;28;20045;-69
2021/12/20 05:41:22;;;;;;;10.87;2.13;;;3.30;99.90;;;;;;5026745;28;20455;-70
2021/12/20 05:43:49;;;;;;;14.83;3.17;;;3.30;99.90;;;;;;5020456;28;20267;-70
2021/12/20 05:46:15;;;;;;;14.07;3.23;;;3.30;99.90;;;;;;5008420;28;20076;-73
2021/12/20 05:48:41;;;;;;;11.17;2.20;;;3.30;99.90;;;;;;5034521;28;20252;-69
2021/12/20 05:51:06;;;;;;;16.17;3.70;;;3.20;99.90;;;;;;5043700;28;20037;-69
2021/12/20 05:53:32;;;;;;;15.07;3.17;;;3.20;99.90;;;;;;5042083;28;20041;-70
2021/12/20 05:56:01;;;;;;;9.90;2.37;;;3.10;99.90;;;;;;5028197;28;20048;-69
2021/12/20 05:58:27;;;;;;;11.73;2.60;;;3.00;99.90;;;;;;5044172;28;20045;-69
2021/12/20 06:00:53;;;;;;;13.30;2.80;;;3.00;99.90;;;;;;5036783;28;20617;-69
2021/12/20 06:03:18;;;;;;;15.47;3.40;;;3.00;99.90;;;;;;5008119;28;20563;-69
2021/12/20 06:05:44;;;;;;;10.97;2.50;;;2.90;99.90;;;;;;5009575;28;20049;-69
2021/12/20 06:08:11;;;;;;;13.93;2.60;;;2.80;99.90;;;;;;5028682;28;20137;-69
2021/12/20 06:10:37;;;;;;;11.27;2.70;;;2.80;99.90;;;;;;5012045;28;20818;-70
2021/12/20 06:13:04;;;;;;;11.77;2.57;;;2.80;99.90;;;;;;5028138;28;20060;-70
2021/12/20 06:15:30;;;;;;;12.63;3.80;;;2.80;99.90;;;;;;5027373;28;20054;-70
2021/12/20 06:17:56;;;;;;;17.60;4.17;;;2.70;99.90;;;;;;5042799;28;20056;-69
2021/12/20 06:20:23;;;;;;;12.30;3.60;;;2.70;99.90;;;;;;5013419;28;20045;-69
2021/12/20 06:22:49;;;;;;;15.17;4.10;;;2.70;99.90;;;;;;5032012;28;20261;-69
2021/12/20 06:25:15;;;;;;;12.43;3.73;;;2.60;99.90;;;;;;5014971;28;20045;-70
2021/12/20 06:27:42;;;;;;;12.30;3.73;;;2.70;99.90;;;;;;5029920;28;20041;-70
2021/12/20 06:30:10;;;;;;;15.50;3.87;;;2.60;99.90;;;;;;5027566;28;20053;-70
2021/12/20 06:32:37;;;;;;;14.50;3.73;;;2.50;99.90;;;;;;5027835;28;21287;-70
2021/12/20 06:35:04;;;;;;;14.13;3.20;;;2.50;99.90;;;;;;5046708;28;20045;-70
2021/12/20 06:37:31;;;;;;;12.63;3.20;;;2.40;99.90;;;;;;5026814;28;20033;-70
2021/12/20 06:39:57;;;;;;;14.77;2.97;;;2.40;99.90;;;;;;5028604;28;20057;-69
2021/12/20 06:42:24;;;;;;;15.13;3.63;;;2.40;99.90;;;;;;5027263;28;20392;-70
2021/12/20 06:44:49;;;;;;;19.50;3.93;;;2.40;99.90;;;;;;5021467;28;20051;-69
2021/12/20 06:47:16;;;;;;;17.20;4.30;;;2.40;99.90;;;;;;5037921;28;20336;-69
2021/12/20 06:49:42;;;;;;;15.20;3.17;;;2.30;99.90;;;;;;5013783;28;20508;-70
2021/12/20 06:52:08;;;;;;;12.93;3.60;;;2.30;99.90;;;;;;5020655;28;20122;-69
2021/12/20 06:54:34;;;;;;;21.50;8.67;;;2.20;99.90;;;;;;5038789;28;20033;-69
2021/12/20 06:57:01;;;;;;;20.63;7.07;;;2.10;99.90;;;;;;5043773;28;20037;-70
2021/12/20 06:59:26;;;;;;;10.00;3.40;;;2.20;99.90;;;;;;5021113;28;20037;-69
2021/12/20 07:01:52;;;;;;;19.67;7.03;;;2.10;99.90;;;;;;5022742;28;20090;-70
2021/12/20 07:04:18;;;;;;;16.40;4.90;;;2.10;99.90;;;;;;5026048;28;20567;-70
2021/12/20 07:06:44;;;;;;;17.37;4.87;;;2.00;99.90;;;;;;5040178;28;20037;-70
2021/12/20 07:09:10;;;;;;;13.40;4.13;;;2.00;99.90;;;;;;5040503;28;20131;-70
2021/12/20 07:11:36;;;;;;;9.23;3.20;;;1.90;99.90;;;;;;5042789;28;20090;-70
2021/12/20 07:14:03;;;;;;;14.43;3.40;;;1.90;99.90;;;;;;5015664;28;20045;-70
2021/12/20 07:16:32;;;;;;;16.37;3.70;;;1.90;99.90;;;;;;5025413;28;20084;-70
2021/12/20 07:18:59;;;;;;;24.37;4.80;;;1.80;99.90;;;;;;5029653;28;20045;-70
2021/12/20 07:21:25;;;;;;;18.87;5.47;;;1.70;99.90;;;;;;5011356;28;20049;-70
2021/12/20 07:23:51;;;;;;;16.10;3.93;;;1.70;99.90;;;;;;5041911;28;20048;-71
2021/12/20 07:26:17;;;;;;;16.07;3.83;;;1.70;99.90;;;;;;5026798;28;20053;-71
2021/12/20 07:28:44;;;;;;;13.10;3.93;;;1.60;99.90;;;;;;5010229;28;20055;-70
2021/12/20 07:31:11;;;;;;;11.60;3.70;;;1.70;99.90;;;;;;5020177;28;20044;-70
2021/12/20 07:33:37;;;;;;;12.13;3.37;;;1.70;99.90;;;;;;5039349;28;20511;-71
2021/12/20 07:36:04;;;;;;;13.93;3.03;;;1.70;99.90;;;;;;5008617;28;20036;-70
2021/12/20 07:38:30;;;;;;;15.40;3.17;;;1.70;99.90;;;;;;5045890;28;20083;-70
2021/12/20 07:40:57;;;;;;;14.07;3.57;;;1.70;99.90;;;;;;5044917;28;20052;-70
2021/12/20 07:43:23;;;;;;;15.73;4.03;;;1.60;99.90;;;;;;5027065;28;20041;-71
2021/12/20 07:45:49;;;;;;;13.20;3.00;;;1.60;99.90;;;;;;5009556;28;20045;-70
2021/12/20 07:48:17;;;;;;;14.93;2.70;;;1.60;99.90;;;;;;5043445;28;20052;-70
2021/12/20 07:50:43;;;;;;;13.17;2.90;;;1.60;99.90;;;;;;5044898;28;20084;-71
2021/12/20 07:53:09;;;;;;;11.27;2.70;;;1.50;99.90;;;;;;5026045;28;20049;-71
2021/12/20 07:55:35;;;;;;;15.67;3.30;;;1.50;99.90;;;;;;5028589;28;20127;-71
2021/12/20 07:58:01;;;;;;;11.43;2.73;;;1.40;99.90;;;;;;5028869;28;20107;-71
2021/12/20 08:00:28;;;;;;;15.97;3.30;;;1.50;99.90;;;;;;5028985;28;20029;-71
2021/12/20 08:02:56;;;;;;;12.43;3.30;;;1.40;99.90;;;;;;5029068;28;20758;-71
2021/12/20 08:05:23;;;;;;;22.80;3.63;;;1.40;99.90;;;;;;5045019;28;20045;-71
2021/12/20 08:07:50;;;;;;;22.00;3.73;;;1.40;99.90;;;;;;5011817;28;20655;-74
2021/12/20 08:10:21;;;;;;;17.77;3.37;;;1.40;99.90;;;;;;5044995;28;20033;-72
2021/12/20 08:12:49;;;;;;;9.57;2.83;;;1.30;99.90;;;;;;5027274;28;20087;-72
2021/12/20 08:15:16;;;;;;;14.30;3.30;;;1.30;99.90;;;;;;5040144;28;20041;-73
2021/12/20 08:17:41;;;;;;;9.57;2.60;;;1.30;99.90;;;;;;5007368;28;20079;-72
2021/12/20 08:20:09;;;;;;;12.07;2.77;;;1.30;99.90;;;;;;5054457;28;20084;-73
2021/12/20 08:22:35;;;;;;;13.60;3.43;;;1.30;99.90;;;;;;5036474;28;20056;-73
2021/12/20 08:25:02;;;;;;;10.57;3.43;;;1.40;99.90;;;;;;5055901;28;20499;-73
2021/12/20 08:27:28;;;;;;;15.13;3.37;;;1.40;99.90;;;;;;5033808;28;20072;-74
2021/12/20 08:29:57;;;;;;;16.30;3.77;;;1.40;99.90;;;;;;5040867;28;20069;-74
2021/12/20 08:32:23;;;;;;;15.90;3.20;;;1.40;99.90;;;;;;5026937;28;20056;-73
2021/12/20 08:34:48;;;;;;;15.07;3.33;;;1.50;99.90;;;;;;5029160;28;20041;-75
2021/12/20 08:37:14;;;;;;;12.00;2.93;;;1.50;99.90;;;;;;5026692;28;20047;-73
2021/12/20 08:39:41;;;;;;;11.30;2.97;;;1.50;99.90;;;;;;5037471;28;20132;-74
2021/12/20 08:42:07;;;;;;;18.67;3.60;;;1.50;99.90;;;;;;5023415;28;20557;-73
2021/12/20 08:44:33;;;;;;;19.03;3.43;;;1.50;99.90;;;;;;5039470;28;20044;-73
2021/12/20 08:46:59;;;;;;;16.83;3.03;;;1.50;99.90;;;;;;5037916;28;20495;-73
2021/12/20 08:49:26;;;;;;;13.00;3.00;;;1.50;99.90;;;;;;5020077;28;20772;-73
2021/12/20 08:51:52;;;;;;;11.03;2.67;;;1.50;99.90;;;;;;5022264;28;20052;-73
2021/12/20 08:54:19;;;;;;;12.90;2.70;;;1.50;99.90;;;;;;5039332;28;20052;-73
2021/12/20 08:56:45;;;;;;;12.57;3.10;;;1.50;99.90;;;;;;5040970;28;20033;-73
2021/12/20 08:59:10;;;;;;;22.17;4.13;;;1.60;99.90;;;;;;5021554;28;20037;-73
2021/12/20 09:01:37;;;;;;;16.50;3.00;;;1.60;99.90;;;;;;5029897;28;20084;-73
2021/12/20 09:04:05;;;;;;;17.93;3.67;;;1.60;99.90;;;;;;5049595;28;20071;-73
2021/12/20 09:06:32;;;;;;;16.73;3.57;;;1.60;99.90;;;;;;5020899;28;20155;-73
2021/12/20 09:08:58;;;;;;;18.47;4.87;;;1.60;99.90;;;;;;5036976;28;20053;-73
2021/12/20 09:11:28;;;;;;;17.90;3.70;;;1.60;99.90;;;;;;5024446;28;20152;-73
2021/12/20 09:13:54;;;;;;;15.07;3.78;;;1.60;99.90;;;;;;5021541;28;20079;-73
2021/12/20 09:16:20;;;;;;;27.67;5.33;;;1.70;99.90;;;;;;5018565;28;20053;-73
2021/12/20 09:18:50;;;;;;;27.40;4.53;;;1.70;99.90;;;;;;5020538;28;20037;-73
2021/12/20 09:21:16;;;;;;;15.50;4.03;;;1.80;99.90;;;;;;5022710;28;20076;-74
2021/12/20 09:23:43;;;;;;;30.33;4.77;;;1.80;99.90;;;;;;5025978;28;20045;-74
2021/12/20 09:26:09;;;;;;;20.93;4.93;;;1.80;99.90;;;;;;5040823;28;20175;-73
2021/12/20 09:28:35;;;;;;;16.83;3.77;;;1.80;99.90;;;;;;5011054;28;20037;-73
2021/12/20 09:31:03;;;;;;;16.43;3.80;;;1.90;99.90;;;;;;5027499;28;20519;-73
2021/12/20 09:33:29;;;;;;;23.70;5.77;;;1.90;99.90;;;;;;5043709;28;20064;-73
2021/12/20 09:35:55;;;;;;;19.33;4.33;;;2.00;99.90;;;;;;5043838;28;20182;-73
2021/12/20 09:38:22;;;;;;;18.87;4.50;;;2.00;99.90;;;;;;5044281;28;20120;-74
2021/12/20 09:43:42;;;;;;;25.33;5.90;;;2.10;99.90;;;;;;5042112;28;20061;-74
2021/12/20 09:46:08;;;;;;;22.80;5.60;;;2.10;99.90;;;;;;5040808;28;20059;-74
2021/12/20 09:48:35;;;;;;;21.27;5.53;;;2.20;99.90;;;;;;5042195;28;20132;-74
2021/12/20 09:51:03;;;;;;;15.37;4.67;;;2.40;99.90;;;;;;5026120;28;20084;-74
2021/12/20 09:53:32;;;;;;;18.10;5.37;;;2.30;99.90;;;;;;5040923;28;20060;-73
2021/12/20 09:55:59;;;;;;;18.30;6.77;;;2.40;99.90;;;;;;5041561;28;20127;-74
2021/12/20 09:58:27;;;;;;;18.83;6.03;;;2.40;99.90;;;;;;5019379;28;20471;-74
2021/12/20 10:00:54;;;;;;;15.57;5.10;;;2.50;99.90;;;;;;5023587;28;20124;-73
2021/12/20 10:03:26;;;;;;;24.90;6.40;;;2.50;99.90;;;;;;5021139;28;20041;-74
2021/12/20 10:05:56;;;;;;;22.17;6.40;;;2.60;99.90;;;;;;5039894;28;20049;-74
2021/12/20 10:08:32;;;;;;;29.77;8.63;;;2.70;99.90;;;;;;5019264;28;20045;-73
2021/12/20 10:11:00;;;;;;;30.87;6.73;;;2.80;99.90;;;;;;5030521;28;20061;-73
2021/12/20 10:13:37;;;;;;;23.13;7.10;;;2.80;99.90;;;;;;5041073;28;20044;-74
2021/12/20 10:16:14;;;;;;;26.77;7.77;;;2.90;99.90;;;;;;5017152;28;20466;-74
2021/12/20 10:18:40;;;;;;;25.63;6.63;;;3.00;99.90;;;;;;5039051;28;20631;-74
2021/12/20 10:21:06;;;;;;;27.10;6.13;;;3.10;99.90;;;;;;5019261;28;20444;-74
2021/12/20 10:23:40;;;;;;;27.23;7.67;;;3.20;99.90;;;;;;5006066;28;20041;-74
2021/12/20 10:26:21;;;;;;;29.30;7.53;;;3.40;99.90;;;;;;5031585;28;20808;-74
2021/12/20 10:28:51;;;;;;;28.50;7.30;;;3.40;99.90;;;;;;5039205;28;20036;-74
2021/12/20 10:31:19;;;;;;;27.30;7.43;;;3.50;99.90;;;;;;5024594;28;20044;-74
2021/12/20 10:34:03;;;;;;;32.07;7.60;;;3.50;99.90;;;;;;5025880;28;20844;-73
2021/12/20 10:36:31;;;;;;;22.93;7.23;;;3.60;99.90;;;;;;5038949;28;20048;-73
2021/12/20 10:38:58;;;;;;;25.20;7.27;;;3.70;99.90;;;;;;5041352;28;20060;-72
2021/12/20 10:41:36;;;;;;;25.67;7.63;;;3.70;99.90;;;;;;5009322;28;20595;-72
2021/12/20 10:44:16;;;;;;;23.80;7.03;;;3.80;99.90;;;;;;5054831;28;20551;-72
2021/12/20 10:47:01;;;;;;;23.13;5.80;;;3.80;99.90;;;;;;5038775;28;20738;-72
2021/12/20 10:49:28;;;;;;;25.87;6.70;;;3.90;99.90;;;;;;5039322;28;20833;-72
2021/12/20 10:51:55;;;;;;;20.00;6.27;;;4.00;99.90;;;;;;5040776;28;20054;-71
2021/12/20 10:54:25;;;;;;;24.73;5.80;;;4.00;99.90;;;;;;5026211;28;20496;-68
2021/12/20 10:57:02;;;;;;;18.92;6.45;;;4.00;99.90;;;;;;5030143;28;20053;-69
2021/12/20 10:59:30;;;;;;;15.07;3.83;;;4.10;99.90;;;;;;5039718;28;20046;-69
2021/12/20 11:04:36;;;;;;;13.33;4.07;;;4.40;99.90;;;;;;5041835;28;20052;-71
2021/12/20 11:09:45;;;;;;;14.37;3.57;;;4.50;99.90;;;;;;5045206;28;20052;-69
2021/12/20 11:12:15;;;;;;;10.50;3.10;;;4.50;99.90;;;;;;5045875;28;20076;-69
2021/12/20 11:14:53;;;;;;;10.57;2.40;;;4.50;99.90;;;;;;5043892;28;20092;-70
2021/12/20 11:17:21;;;;;;;10.37;2.77;;;4.50;99.90;;;;;;5041445;28;20530;-69
2021/12/20 11:19:52;;;;;;;9.57;2.40;;;4.50;99.90;;;;;;5037267;28;20049;-69
2021/12/20 11:22:20;;;;;;;10.17;2.77;;;4.50;99.90;;;;;;5041847;28;20118;-69
2021/12/20 11:24:54;;;;;;;12.33;3.10;;;4.60;99.90;;;;;;5035353;28;20071;-69
2021/12/20 11:27:23;;;;;;;8.80;2.83;;;4.60;99.90;;;;;;5038969;28;20049;-73
2021/12/20 11:29:50;;;;;;;10.00;2.97;;;4.70;99.90;;;;;;5035648;28;20053;-73
2021/12/20 11:32:18;;;;;;;9.50;2.57;;;4.80;99.90;;;;;;5035408;28;20038;-73
2021/12/20 11:34:44;;;;;;;11.67;3.27;;;4.80;99.90;;;;;;5053544;28;20208;-73
2021/12/20 11:37:13;;;;;;;10.23;4.17;;;4.80;99.90;;;;;;5046764;28;20041;-73
2021/12/20 11:39:39;;;;;;;8.60;3.27;;;4.90;99.90;;;;;;5031979;28;20048;-73
2021/12/20 11:42:07;;;;;;;13.77;3.97;;;4.90;99.90;;;;;;5034367;28;20037;-73
2021/12/20 11:44:36;;;;;;;8.77;3.87;;;4.90;99.90;;;;;;5045104;28;20037;-74
2021/12/20 11:47:27;;;;;;;9.80;2.70;;;4.90;99.90;;;;;;5040965;28;20155;-73
2021/12/20 11:49:57;;;;;;;;;;;4.90;99.90;;;;;;5043845;28;20058;-74
2021/12/20 11:52:23;;;;;;;7.80;2.17;;;5.00;99.90;;;;;;5031544;28;19982;-74
2021/12/20 11:54:53;;;;;;;4.83;1.17;;;5.00;99.90;;;;;;5018950;28;20372;-73
2021/12/20 11:57:35;;;;;;;6.32;1.30;;;5.00;99.90;;;;;;5040793;28;20037;-73
2021/12/20 12:00:19;;;;;;;5.33;1.50;;;5.10;99.90;;;;;;5029973;28;20364;-73
2021/12/20 12:02:47;;;;;;;6.30;1.70;;;5.10;99.90;;;;;;5028939;28;20412;-72
2021/12/20 12:05:28;;;;;;;3.33;0.97;;;5.10;99.90;;;;;;5039466;28;20048;-73
2021/12/20 12:08:14;;;;;;;4.60;1.50;;;5.20;99.90;;;;;;5027063;28;20052;-74
2021/12/20 12:10:40;;;;;;;7.40;1.77;;;5.10;99.90;;;;;;5026031;28;20088;-74
2021/12/20 12:13:14;;;;;;;7.67;1.60;;;5.30;99.90;;;;;;4995244;28;20787;-74
2021/12/20 12:16:16;;;;;;;4.30;1.40;;;5.30;99.90;;;;;;4995295;28;20051;-73
2021/12/20 12:18:50;;;;;;;8.73;2.00;;;5.30;99.90;;;;;;5011279;28;20041;-70
2021/12/20 12:21:33;;;;;;;5.83;2.00;;;5.30;99.90;;;;;;5028551;28;20242;-70
2021/12/20 12:24:05;;;;;;;6.80;1.60;;;5.30;99.90;;;;;;5043338;28;20056;-70
2021/12/20 12:26:48;;;;;;;7.47;2.23;;;5.40;99.90;;;;;;5030207;28;20053;-70
2021/12/20 12:29:23;;;;;;;6.33;1.80;;;5.40;99.90;;;;;;5026687;28;20041;-70
2021/12/20 12:31:57;;;;;;;5.87;2.07;;;5.40;99.90;;;;;;5010170;28;20665;-70
2021/12/20 12:34:36;;;;;;;6.77;1.87;;;5.40;99.90;;;;;;5026475;28;20094;-70
2021/12/20 12:37:37;;;;;;;4.63;1.60;;;5.40;99.90;;;;;;5043342;28;20051;-70
2021/12/20 12:40:31;;;;;;;5.63;1.30;;;5.60;99.90;;;;;;5030688;28;20085;-70
2021/12/20 12:42:58;;;;;;;6.37;1.40;;;5.40;99.90;;;;;;5043290;28;20081;-70
2021/12/20 12:45:49;;;;;;;8.57;1.40;;;5.50;99.90;;;;;;4994082;28;20052;-70
2021/12/20 12:48:36;;;;;;;5.90;1.30;;;5.50;99.90;;;;;;5027045;28;20077;-70
2021/12/20 12:51:20;;;;;;;5.50;0.93;;;5.50;99.90;;;;;;5042726;28;20045;-70
2021/12/20 12:53:52;;;;;;;5.27;1.20;;;5.50;99.90;;;;;;5025129;28;20124;-70
2021/12/20 12:56:25;;;;;;;7.07;1.07;;;5.50;99.90;;;;;;5026535;28;20115;-70
2021/12/20 12:59:15;;;;;;;4.17;1.00;;;5.50;99.90;;;;;;5023887;28;20041;-70
2021/12/20 13:01:57;;;;;;;3.50;1.23;;;5.60;99.90;;;;;;5023150;28;20045;-70
2021/12/20 13:04:45;;;;;;;4.07;0.93;;;5.60;99.90;;;;;;5038116;28;20037;-70
2021/12/20 13:07:26;;;;;;;4.37;1.10;;;5.60;99.90;;;;;;5031064;28;20131;-70
2021/12/20 13:09:55;;;;;;;5.90;1.20;;;5.60;99.90;;;;;;5032312;28;20057;-70
2021/12/20 13:17:40;;;;;;;5.20;1.50;;;5.60;99.90;;;;;;5053279;28;20365;-70
2021/12/20 13:20:18;;;;;;;5.87;1.53;;;5.50;99.90;;;;;;5024501;28;20036;-72